sensor_id;sensor_type;location;lat;lon;timestamp;pressure;altitude;pressure_sealevel;temperature;humidity
67341;BME280;54227;45.198;5.732;2022-07-29T00:01:28;98879.81;;;28.19;35.96
67341;BME280;54227;45.198;5.732;2022-07-29T00:03:54;98872.44;;;28.25;35.81
67341;BME280;54227;45.198;5.732;2022-07-29T00:06:20;98891.00;;;28.23;36.16
67341;BME280;54227;45.198;5.732;2022-07-29T00:08:46;98890.56;;;28.24;35.95
67341;BME280;54227;45.198;5.732;2022-07-29T00:11:14;98876.84;;;28.27;35.64
67341;BME280;54227;45.198;5.732;2022-07-29T00:13:39;98886.16;;;28.23;35.92
67341;BME280;54227;45.198;5.732;2022-07-29T00:16:05;98895.47;;;28.20;36.18
67341;BME280;54227;45.198;5.732;2022-07-29T00:18:31;98882.38;;;28.14;36.24
67341;BME280;54227;45.198;5.732;2022-07-29T00:20:56;98883.09;;;28.18;36.10
67341;BME280;54227;45.198;5.732;2022-07-29T00:23:22;98889.59;;;28.15;36.28
67341;BME280;54227;45.198;5.732;2022-07-29T00:25:47;98889.16;;;28.16;36.27
67341;BME280;54227;45.198;5.732;2022-07-29T00:28:12;98893.09;;;28.19;36.35
67341;BME280;54227;45.198;5.732;2022-07-29T00:30:38;98890.63;;;28.21;36.02
67341;BME280;54227;45.198;5.732;2022-07-29T00:33:03;98886.63;;;28.22;36.11
67341;BME280;54227;45.198;5.732;2022-07-29T00:35:29;98893.72;;;28.27;35.78
67341;BME280;54227;45.198;5.732;2022-07-29T00:38:11;98886.38;;;28.33;35.88
67341;BME280;54227;45.198;5.732;2022-07-29T00:40:36;98896.34;;;28.17;36.44
67341;BME280;54227;45.198;5.732;2022-07-29T00:43:02;98890.38;;;28.15;36.28
67341;BME280;54227;45.198;5.732;2022-07-29T00:45:27;98886.34;;;28.16;36.29
67341;BME280;54227;45.198;5.732;2022-07-29T00:47:53;98883.16;;;28.14;36.13
67341;BME280;54227;45.198;5.732;2022-07-29T00:50:18;98888.38;;;28.16;36.23
67341;BME280;54227;45.198;5.732;2022-07-29T00:52:44;98889.59;;;28.15;36.33
67341;BME280;54227;45.198;5.732;2022-07-29T00:55:13;98890.72;;;28.17;36.20
67341;BME280;54227;45.198;5.732;2022-07-29T00:57:40;98886.78;;;28.15;36.27
67341;BME280;54227;45.198;5.732;2022-07-29T01:00:08;98883.16;;;28.14;36.44
67341;BME280;54227;45.198;5.732;2022-07-29T01:02:34;98883.09;;;28.18;36.26
67341;BME280;54227;45.198;5.732;2022-07-29T01:05:01;98885.44;;;28.19;36.08
67341;BME280;54227;45.198;5.732;2022-07-29T01:07:27;98881.06;;;28.18;35.96
67341;BME280;54227;45.198;5.732;2022-07-29T01:09:54;98878.66;;;28.37;35.31
67341;BME280;54227;45.198;5.732;2022-07-29T01:12:25;98879.81;;;28.19;36.19
67341;BME280;54227;45.198;5.732;2022-07-29T01:14:51;98881.56;;;28.13;36.40
67341;BME280;54227;45.198;5.732;2022-07-29T01:18:04;98885.28;;;28.10;36.26
67341;BME280;54227;45.198;5.732;2022-07-29T01:28:46;98887.03;;;28.20;36.10
67341;BME280;54227;45.198;5.732;2022-07-29T01:31:16;98884.31;;;28.17;36.28
67341;BME280;54227;45.198;5.732;2022-07-29T01:33:59;98882.19;;;28.21;35.84
67341;BME280;54227;45.198;5.732;2022-07-29T01:36:45;98894.16;;;28.25;35.71
67341;BME280;54227;45.198;5.732;2022-07-29T01:39:19;98882.75;;;28.16;36.28
67341;BME280;54227;45.198;5.732;2022-07-29T01:41:57;98886.84;;;28.11;36.59
67341;BME280;54227;45.198;5.732;2022-07-29T01:44:31;98885.28;;;28.10;36.36
67341;BME280;54227;45.198;5.732;2022-07-29T01:47:02;98884.03;;;28.11;36.18
67341;BME280;54227;45.198;5.732;2022-07-29T01:49:35;98882.91;;;28.09;36.34
67341;BME280;54227;45.198;5.732;2022-07-29T01:52:08;98880.78;;;28.13;36.33
67341;BME280;54227;45.198;5.732;2022-07-29T01:54:42;98885.09;;;28.17;36.24
67341;BME280;54227;45.198;5.732;2022-07-29T01:57:10;98878.69;;;28.17;36.07
67341;BME280;54227;45.198;5.732;2022-07-29T01:59:39;98882.97;;;28.21;36.22
67341;BME280;54227;45.198;5.732;2022-07-29T02:02:06;98880.09;;;28.25;36.05
67341;BME280;54227;45.198;5.732;2022-07-29T02:04:35;98884.84;;;28.28;35.52
67341;BME280;54227;45.198;5.732;2022-07-29T02:07:05;98885.69;;;28.45;35.27
67341;BME280;54227;45.198;5.732;2022-07-29T02:09:34;98886.97;;;28.24;36.37
67341;BME280;54227;45.198;5.732;2022-07-29T02:12:03;98887.75;;;28.08;36.38
67341;BME280;54227;45.198;5.732;2022-07-29T02:14:34;98886.94;;;28.08;36.38
67341;BME280;54227;45.198;5.732;2022-07-29T02:17:01;98890.44;;;28.12;36.35
67341;BME280;54227;45.198;5.732;2022-07-29T02:19:28;98892.41;;;28.15;36.38
67341;BME280;54227;45.198;5.732;2022-07-29T02:21:56;98888.38;;;28.16;36.22
67341;BME280;54227;45.198;5.732;2022-07-29T02:24:24;98893.19;;;28.15;36.39
67341;BME280;54227;45.198;5.732;2022-07-29T02:26:51;98891.53;;;28.18;36.25
67341;BME280;54227;45.198;5.732;2022-07-29T02:29:23;98876.16;;;28.22;36.20
67341;BME280;54227;45.198;5.732;2022-07-29T02:31:51;98876.41;;;28.28;36.08
67341;BME280;54227;45.198;5.732;2022-07-29T02:34:20;98878.19;;;28.38;35.60
67341;BME280;54227;45.198;5.732;2022-07-29T02:36:46;98874.22;;;28.36;36.12
67341;BME280;54227;45.198;5.732;2022-07-29T02:39:14;98889.06;;;28.20;36.26
67341;BME280;54227;45.198;5.732;2022-07-29T02:41:48;98888.44;;;28.12;36.45
67341;BME280;54227;45.198;5.732;2022-07-29T02:44:16;98889.66;;;28.11;36.38
67341;BME280;54227;45.198;5.732;2022-07-29T02:46:49;98880.00;;;28.12;36.46
67341;BME280;54227;45.198;5.732;2022-07-29T02:52:02;98887.91;;;28.17;36.40
67341;BME280;54227;45.198;5.732;2022-07-29T02:54:41;98880.72;;;28.16;36.19
67341;BME280;54227;45.198;5.732;2022-07-29T02:57:20;98882.97;;;28.21;36.33
67341;BME280;54227;45.198;5.732;2022-07-29T02:59:49;98894.59;;;28.23;36.39
67341;BME280;54227;45.198;5.732;2022-07-29T03:02:17;98880.88;;;28.25;36.24
67341;BME280;54227;45.198;5.732;2022-07-29T03:04:43;98882.03;;;28.28;36.20
67341;BME280;54227;45.198;5.732;2022-07-29T03:07:13;98885.38;;;28.23;36.43
67341;BME280;54227;45.198;5.732;2022-07-29T03:09:41;98887.31;;;28.26;36.22
67341;BME280;54227;45.198;5.732;2022-07-29T03:12:08;98895.25;;;28.31;35.92
67341;BME280;54227;45.198;5.732;2022-07-29T03:14:34;98900.53;;;28.45;35.65
67341;BME280;54227;45.198;5.732;2022-07-29T03:17:01;98895.75;;;28.26;36.46
67341;BME280;54227;45.198;5.732;2022-07-29T03:19:27;98899.50;;;28.19;36.21
67341;BME280;54227;45.198;5.732;2022-07-29T03:21:56;98894.78;;;28.16;36.37
67341;BME280;54227;45.198;5.732;2022-07-29T03:24:31;98910.13;;;28.12;36.56
67341;BME280;54227;45.198;5.732;2022-07-29T03:26:56;98910.84;;;28.16;36.54
67341;BME280;54227;45.198;5.732;2022-07-29T03:29:23;98904.34;;;28.19;36.50
67341;BME280;54227;45.198;5.732;2022-07-29T03:31:49;98901.88;;;28.21;36.30
67341;BME280;54227;45.198;5.732;2022-07-29T03:34:14;98901.88;;;28.21;36.30
67341;BME280;54227;45.198;5.732;2022-07-29T03:36:39;98896.25;;;28.21;36.38
67341;BME280;54227;45.198;5.732;2022-07-29T03:39:05;98909.13;;;28.22;36.41
67341;BME280;54227;45.198;5.732;2022-07-29T03:41:33;98923.25;;;28.18;36.42
67341;BME280;54227;45.198;5.732;2022-07-29T03:44:01;98934.03;;;28.20;36.35
67341;BME280;54227;45.198;5.732;2022-07-29T03:46:28;98934.41;;;28.22;36.48
67341;BME280;54227;45.198;5.732;2022-07-29T03:48:58;98936.00;;;28.23;36.39
67341;BME280;54227;45.198;5.732;2022-07-29T03:51:25;98940.84;;;28.22;36.23
67341;BME280;54227;45.198;5.732;2022-07-29T03:53:51;98941.97;;;28.25;36.46
67341;BME280;54227;45.198;5.732;2022-07-29T03:56:21;98934.41;;;28.22;36.32
67341;BME280;54227;45.198;5.732;2022-07-29T03:58:51;98942.75;;;28.25;36.33
67341;BME280;54227;45.198;5.732;2022-07-29T04:01:18;98943.56;;;28.26;36.23
67341;BME280;54227;45.198;5.732;2022-07-29T04:03:44;98943.22;;;28.24;36.38
67341;BME280;54227;45.198;5.732;2022-07-29T04:06:14;98955.59;;;28.27;36.31
67341;BME280;54227;45.198;5.732;2022-07-29T04:08:40;98953.00;;;28.36;35.79
67341;BME280;54227;45.198;5.732;2022-07-29T04:11:05;98946.22;;;28.33;36.27
67341;BME280;54227;45.198;5.732;2022-07-29T04:13:32;98958.56;;;28.19;36.80
67341;BME280;54227;45.198;5.732;2022-07-29T04:15:58;98957.09;;;28.15;36.51
67341;BME280;54227;45.198;5.732;2022-07-29T04:18:23;98963.50;;;28.15;36.61
67341;BME280;54227;45.198;5.732;2022-07-29T04:20:49;98969.03;;;28.19;36.44
67341;BME280;54227;45.198;5.732;2022-07-29T04:23:15;98961.81;;;28.18;36.52
67341;BME280;54227;45.198;5.732;2022-07-29T04:25:41;98963.84;;;28.17;36.40
67341;BME280;54227;45.198;5.732;2022-07-29T04:28:07;98959.34;;;28.20;36.40
67341;BME280;54227;45.198;5.732;2022-07-29T04:30:34;98962.91;;;28.24;36.22
67341;BME280;54227;45.198;5.732;2022-07-29T04:33:00;98969.75;;;28.23;36.34
67341;BME280;54227;45.198;5.732;2022-07-29T04:35:27;98972.56;;;28.23;36.41
67341;BME280;54227;45.198;5.732;2022-07-29T04:37:52;98970.59;;;28.20;36.41
67341;BME280;54227;45.198;5.732;2022-07-29T04:40:18;98972.19;;;28.21;36.54
67341;BME280;54227;45.198;5.732;2022-07-29T04:42:44;98976.97;;;28.24;36.46
67341;BME280;54227;45.198;5.732;2022-07-29T04:45:09;98970.88;;;28.25;36.58
67341;BME280;54227;45.198;5.732;2022-07-29T04:47:35;98974.84;;;28.28;36.46
67341;BME280;54227;45.198;5.732;2022-07-29T04:50:00;98965.59;;;28.28;36.50
67341;BME280;54227;45.198;5.732;2022-07-29T04:52:26;98972.47;;;28.27;36.41
67341;BME280;54227;45.198;5.732;2022-07-29T04:54:51;98982.44;;;28.31;36.40
67341;BME280;54227;45.198;5.732;2022-07-29T04:57:16;98978.06;;;28.30;36.59
67341;BME280;54227;45.198;5.732;2022-07-29T04:59:42;98982.47;;;28.28;36.33
67341;BME280;54227;45.198;5.732;2022-07-29T05:02:07;98978.75;;;28.34;36.12
67341;BME280;54227;45.198;5.732;2022-07-29T05:04:32;98989.31;;;28.30;36.44
67341;BME280;54227;45.198;5.732;2022-07-29T05:06:58;98989.59;;;28.16;37.15
67341;BME280;54227;45.198;5.732;2022-07-29T05:09:23;98996.88;;;28.13;36.99
67341;BME280;54227;45.198;5.732;2022-07-29T05:11:49;99003.28;;;28.14;37.09
67341;BME280;54227;45.198;5.732;2022-07-29T05:14:14;98992.41;;;28.16;37.12
67341;BME280;54227;45.198;5.732;2022-07-29T05:16:40;99008.06;;;28.17;37.30
67341;BME280;54227;45.198;5.732;2022-07-29T05:19:05;98996.19;;;28.25;36.45
67341;BME280;54227;45.198;5.732;2022-07-29T05:21:31;98992.13;;;28.30;37.11
67341;BME280;54227;45.198;5.732;2022-07-29T05:23:57;98983.97;;;28.16;37.38
67341;BME280;54227;45.198;5.732;2022-07-29T05:26:22;98969.97;;;28.12;37.61
67341;BME280;54227;45.198;5.732;2022-07-29T05:28:48;98974.03;;;28.11;37.53
67341;BME280;54227;45.198;5.732;2022-07-29T05:31:13;98987.63;;;28.13;37.63
67341;BME280;54227;45.198;5.732;2022-07-29T05:33:48;98984.13;;;28.09;37.73
67341;BME280;54227;45.198;5.732;2022-07-29T05:36:14;98994.53;;;28.28;37.22
67341;BME280;54227;45.198;5.732;2022-07-29T05:38:39;98991.97;;;28.17;37.74
67341;BME280;54227;45.198;5.732;2022-07-29T05:41:05;98997.81;;;28.07;38.42
67341;BME280;54227;45.198;5.732;2022-07-29T05:43:30;99005.03;;;28.08;38.49
67341;BME280;54227;45.198;5.732;2022-07-29T05:45:56;99001.06;;;28.05;38.52
67341;BME280;54227;45.198;5.732;2022-07-29T05:48:22;99002.59;;;28.10;38.48
67341;BME280;54227;45.198;5.732;2022-07-29T05:50:47;99012.94;;;28.13;38.50
67341;BME280;54227;45.198;5.732;2022-07-29T05:53:12;99008.91;;;28.14;38.50
67341;BME280;54227;45.198;5.732;2022-07-29T05:55:38;99012.78;;;28.20;38.43
67341;BME280;54227;45.198;5.732;2022-07-29T05:58:03;99013.16;;;28.22;38.16
67341;BME280;54227;45.198;5.732;2022-07-29T06:00:29;99009.00;;;28.30;37.34
67341;BME280;54227;45.198;5.732;2022-07-29T06:02:55;99012.06;;;28.36;38.19
67341;BME280;54227;45.198;5.732;2022-07-29T06:05:20;99013.22;;;28.38;38.16
67341;BME280;54227;45.198;5.732;2022-07-29T06:07:46;99017.47;;;28.46;37.88
67341;BME280;54227;45.198;5.732;2022-07-29T06:10:11;99027.81;;;28.49;37.62
67341;BME280;54227;45.198;5.732;2022-07-29T06:12:36;99027.41;;;28.51;37.80
67341;BME280;54227;45.198;5.732;2022-07-29T06:15:02;99030.13;;;28.55;37.40
67341;BME280;54227;45.198;5.732;2022-07-29T06:17:28;99011.16;;;28.59;37.38
67341;BME280;54227;45.198;5.732;2022-07-29T06:19:53;99023.09;;;28.63;37.36
67341;BME280;54227;45.198;5.732;2022-07-29T06:22:18;99022.94;;;28.70;37.43
67341;BME280;54227;45.198;5.732;2022-07-29T06:24:44;99028.56;;;28.70;37.29
67341;BME280;54227;45.198;5.732;2022-07-29T06:27:12;99018.88;;;28.71;37.37
67341;BME280;54227;45.198;5.732;2022-07-29T06:29:38;99024.72;;;28.80;36.58
67341;BME280;54227;45.198;5.732;2022-07-29T06:32:04;99022.75;;;28.77;37.28
67341;BME280;54227;45.198;5.732;2022-07-29T06:34:29;99018.81;;;28.74;37.18
67341;BME280;54227;45.198;5.732;2022-07-29T06:36:54;99014.41;;;28.73;37.07
67341;BME280;54227;45.198;5.732;2022-07-29T06:39:20;99011.94;;;28.75;37.10
67341;BME280;54227;45.198;5.732;2022-07-29T06:41:47;99019.94;;;28.77;37.05
67341;BME280;54227;45.198;5.732;2022-07-29T06:44:14;99029.19;;;28.77;37.18
67341;BME280;54227;45.198;5.732;2022-07-29T06:46:39;99031.13;;;28.81;36.98
67341;BME280;54227;45.198;5.732;2022-07-29T06:49:05;99029.13;;;28.81;37.01
67341;BME280;54227;45.198;5.732;2022-07-29T06:51:30;99033.94;;;28.81;36.98
67341;BME280;54227;45.198;5.732;2022-07-29T06:53:56;99034.19;;;28.86;36.35
67341;BME280;54227;45.198;5.732;2022-07-29T06:56:22;99036.59;;;28.88;36.94
67341;BME280;54227;45.198;5.732;2022-07-29T06:58:48;99041.94;;;28.82;37.17
67341;BME280;54227;45.198;5.732;2022-07-29T07:01:13;99050.84;;;28.81;36.92
67341;BME280;54227;45.198;5.732;2022-07-29T07:03:38;99043.19;;;28.81;36.75
67341;BME280;54227;45.198;5.732;2022-07-29T07:06:04;99042.47;;;28.77;36.96
67341;BME280;54227;45.198;5.732;2022-07-29T07:08:29;99046.88;;;28.78;36.87
67341;BME280;54227;45.198;5.732;2022-07-29T07:10:55;99057.25;;;28.81;36.86
67341;BME280;54227;45.198;5.732;2022-07-29T07:13:22;99056.81;;;28.83;36.83
67341;BME280;54227;45.198;5.732;2022-07-29T07:15:48;99056.38;;;28.84;36.90
67341;BME280;54227;45.198;5.732;2022-07-29T07:18:14;99051.00;;;28.90;35.99
67341;BME280;54227;45.198;5.732;2022-07-29T07:20:40;99049.50;;;28.85;36.84
67341;BME280;54227;45.198;5.732;2022-07-29T07:23:06;99056.47;;;28.81;36.96
67341;BME280;54227;45.198;5.732;2022-07-29T07:25:32;99061.66;;;28.82;36.77
67341;BME280;54227;45.198;5.732;2022-07-29T07:27:57;99060.53;;;28.79;36.99
67341;BME280;54227;45.198;5.732;2022-07-29T07:30:22;99057.78;;;28.76;36.67
67341;BME280;54227;45.198;5.732;2022-07-29T07:32:48;99065.78;;;28.77;36.86
67341;BME280;54227;45.198;5.732;2022-07-29T07:35:13;99066.16;;;28.79;36.73
67341;BME280;54227;45.198;5.732;2022-07-29T07:37:39;99067.28;;;28.82;36.82
67341;BME280;54227;45.198;5.732;2022-07-29T07:40:09;99068.16;;;28.79;36.96
67341;BME280;54227;45.198;5.732;2022-07-29T07:42:37;99068.16;;;28.79;36.74
67341;BME280;54227;45.198;5.732;2022-07-29T07:45:02;99062.72;;;28.88;36.30
67341;BME280;54227;45.198;5.732;2022-07-29T07:47:28;99066.56;;;28.78;37.28
67341;BME280;54227;45.198;5.732;2022-07-29T07:49:53;99063.56;;;28.69;37.44
67341;BME280;54227;45.198;5.732;2022-07-29T07:52:21;99055.06;;;28.72;36.92
67341;BME280;54227;45.198;5.732;2022-07-29T07:54:47;99062.34;;;28.70;37.20
67341;BME280;54227;45.198;5.732;2022-07-29T07:57:14;99064.66;;;28.75;37.11
67341;BME280;54227;45.198;5.732;2022-07-29T07:59:40;99056.47;;;28.81;36.38
67341;BME280;54227;45.198;5.732;2022-07-29T08:02:06;99062.09;;;28.81;37.40
67341;BME280;54227;45.198;5.732;2022-07-29T08:04:32;99058.06;;;28.82;37.30
67341;BME280;54227;45.198;5.732;2022-07-29T08:06:58;99055.69;;;28.80;37.26
67341;BME280;54227;45.198;5.732;2022-07-29T08:09:26;99059.63;;;28.83;37.24
67341;BME280;54227;45.198;5.732;2022-07-29T08:11:52;99066.50;;;28.82;37.26
67341;BME280;54227;45.198;5.732;2022-07-29T08:14:18;99055.50;;;28.87;36.74
67341;BME280;54227;45.198;5.732;2022-07-29T08:16:43;99067.81;;;28.77;37.23
67341;BME280;54227;45.198;5.732;2022-07-29T08:19:09;99067.91;;;28.73;36.97
67341;BME280;54227;45.198;5.732;2022-07-29T08:21:35;99069.94;;;28.73;37.07
67341;BME280;54227;45.198;5.732;2022-07-29T08:24:01;99080.28;;;28.76;37.10
67341;BME280;54227;45.198;5.732;2022-07-29T08:26:45;99081.38;;;28.82;36.93
67341;BME280;54227;45.198;5.732;2022-07-29T08:29:11;99082.94;;;28.83;36.94
67341;BME280;54227;45.198;5.732;2022-07-29T08:31:37;99084.88;;;28.86;36.54
67341;BME280;54227;45.198;5.732;2022-07-29T08:34:04;99095.28;;;28.89;37.05
67341;BME280;54227;45.198;5.732;2022-07-29T08:36:30;99111.59;;;28.78;37.09
67341;BME280;54227;45.198;5.732;2022-07-29T08:38:56;99131.75;;;28.76;37.16
67341;BME280;54227;45.198;5.732;2022-07-29T08:41:25;99163.78;;;28.83;37.12
67341;BME280;54227;45.198;5.732;2022-07-29T08:43:51;99194.31;;;28.84;37.17
67341;BME280;54227;45.198;5.732;2022-07-29T08:46:19;99209.63;;;28.83;37.10
67341;BME280;54227;45.198;5.732;2022-07-29T08:48:46;99222.13;;;28.82;37.51
67341;BME280;54227;45.198;5.732;2022-07-29T08:51:17;99224.75;;;28.73;37.68
67341;BME280;54227;45.198;5.732;2022-07-29T08:53:45;99254.19;;;28.68;37.47
67341;BME280;54227;45.198;5.732;2022-07-29T08:56:13;99274.66;;;28.69;38.02
67341;BME280;54227;45.198;5.732;2022-07-29T08:58:39;99280.44;;;28.62;38.38
67341;BME280;54227;45.198;5.732;2022-07-29T09:01:06;99278.84;;;28.61;38.39
67341;BME280;54227;45.198;5.732;2022-07-29T09:03:34;99289.31;;;28.60;38.72
67341;BME280;54227;45.198;5.732;2022-07-29T09:06:01;99302.25;;;28.58;39.32
67341;BME280;54227;45.198;5.732;2022-07-29T09:08:27;99318.25;;;28.61;39.90
67341;BME280;54227;45.198;5.732;2022-07-29T09:10:54;99316.59;;;28.63;40.89
67341;BME280;54227;45.198;5.732;2022-07-29T09:13:21;99328.59;;;28.67;41.27
67341;BME280;54227;45.198;5.732;2022-07-29T09:15:47;99326.13;;;28.69;41.95
67341;BME280;54227;45.198;5.732;2022-07-29T09:18:33;99336.59;;;28.69;42.45
67341;BME280;54227;45.198;5.732;2022-07-29T09:20:59;99335.72;;;28.72;42.62
67341;BME280;54227;45.198;5.732;2022-07-29T09:24:06;99346.94;;;28.75;43.06
67341;BME280;54227;45.198;5.732;2022-07-29T09:26:34;99353.28;;;28.79;42.97
67341;BME280;54227;45.198;5.732;2022-07-29T09:29:11;99369.75;;;28.81;42.66
67341;BME280;54227;45.198;5.732;2022-07-29T09:31:38;99378.13;;;28.85;42.49
67341;BME280;54227;45.198;5.732;2022-07-29T09:34:05;99377.41;;;28.81;42.64
67341;BME280;54227;45.198;5.732;2022-07-29T09:36:40;99375.72;;;28.83;42.32
67341;BME280;54227;45.198;5.732;2022-07-29T09:39:05;99380.63;;;28.79;42.51
67341;BME280;54227;45.198;5.732;2022-07-29T09:41:52;99385.84;;;28.81;42.75
67341;BME280;54227;45.198;5.732;2022-07-29T09:44:18;99382.59;;;28.82;42.21
67341;BME280;54227;45.198;5.732;2022-07-29T09:46:56;99379.34;;;28.84;42.56
67341;BME280;54227;45.198;5.732;2022-07-29T09:49:23;99372.13;;;28.83;42.48
67341;BME280;54227;45.198;5.732;2022-07-29T09:51:59;99376.59;;;28.80;42.77
67341;BME280;54227;45.198;5.732;2022-07-29T09:54:25;99382.25;;;28.80;43.15
67341;BME280;54227;45.198;5.732;2022-07-29T09:56:52;99381.00;;;28.81;43.81
67341;BME280;54227;45.198;5.732;2022-07-29T09:59:17;99379.78;;;28.82;43.72
67341;BME280;54227;45.198;5.732;2022-07-29T10:01:45;99375.72;;;28.83;44.60
67341;BME280;54227;45.198;5.732;2022-07-29T10:04:11;99378.56;;;28.83;44.88
67341;BME280;54227;45.198;5.732;2022-07-29T10:06:55;99378.19;;;28.81;45.61
67341;BME280;54227;45.198;5.732;2022-07-29T10:09:22;99379.78;;;28.82;45.62
67341;BME280;54227;45.198;5.732;2022-07-29T10:12:11;99380.50;;;28.86;45.95
67341;BME280;54227;45.198;5.732;2022-07-29T10:14:39;99375.69;;;28.87;46.22
67341;BME280;54227;45.198;5.732;2022-07-29T10:17:06;99374.50;;;28.84;46.58
67341;BME280;54227;45.198;5.732;2022-07-29T10:19:32;99366.50;;;28.83;46.61
67341;BME280;54227;45.198;5.732;2022-07-29T10:21:59;99364.97;;;28.78;46.79
67341;BME280;54227;45.198;5.732;2022-07-29T10:24:27;99366.94;;;28.81;46.65
67341;BME280;54227;45.198;5.732;2022-07-29T10:26:58;99364.13;;;28.81;46.45
67341;BME280;54227;45.198;5.732;2022-07-29T10:29:24;99371.81;;;28.77;47.00
67341;BME280;54227;45.198;5.732;2022-07-29T10:40:25;99368.66;;;28.75;46.51
67341;BME280;54227;45.198;5.732;2022-07-29T10:43:23;99371.94;;;28.70;46.76
67341;BME280;54227;45.198;5.732;2022-07-29T10:45:49;99377.59;;;28.70;46.87
67341;BME280;54227;45.198;5.732;2022-07-29T10:48:20;99380.41;;;28.70;47.02
67341;BME280;54227;45.198;5.732;2022-07-29T10:51:03;99390.44;;;28.71;47.23
67341;BME280;54227;45.198;5.732;2022-07-29T10:53:52;99390.38;;;28.74;47.01
67341;BME280;54227;45.198;5.732;2022-07-29T10:56:28;99386.38;;;28.72;47.24
67341;BME280;54227;45.198;5.732;2022-07-29T11:01:52;99387.25;;;28.69;46.90
67341;BME280;54227;45.198;5.732;2022-07-29T11:07:07;99394.13;;;28.68;46.29
67341;BME280;54227;45.198;5.732;2022-07-29T11:09:33;99395.78;;;28.65;46.81
67341;BME280;54227;45.198;5.732;2022-07-29T11:11:59;99394.59;;;28.63;47.07
67341;BME280;54227;45.198;5.732;2022-07-29T11:14:59;99390.56;;;28.64;47.48
67341;BME280;54227;45.198;5.732;2022-07-29T11:17:26;99394.56;;;28.66;47.61
67341;BME280;54227;45.198;5.732;2022-07-29T11:19:52;99389.75;;;28.63;47.90
67341;BME280;54227;45.198;5.732;2022-07-29T11:22:37;99384.88;;;28.67;48.03
67341;BME280;54227;45.198;5.732;2022-07-29T11:25:15;99381.63;;;28.69;47.93
67341;BME280;54227;45.198;5.732;2022-07-29T11:27:41;99383.22;;;28.70;47.98
67341;BME280;54227;45.198;5.732;2022-07-29T11:30:08;99376.00;;;28.69;48.08
67341;BME280;54227;45.198;5.732;2022-07-29T11:32:42;99380.03;;;28.68;47.95
67341;BME280;54227;45.198;5.732;2022-07-29T11:35:19;99372.09;;;28.63;47.88
67341;BME280;54227;45.198;5.732;2022-07-29T11:41:24;99359.19;;;28.65;47.70
67341;BME280;54227;45.198;5.732;2022-07-29T11:43:58;99349.53;;;28.66;47.37
67341;BME280;54227;45.198;5.732;2022-07-29T11:49:07;99352.50;;;28.56;47.50
67341;BME280;54227;45.198;5.732;2022-07-29T11:51:35;99355.03;;;28.50;47.20
67341;BME280;54227;45.198;5.732;2022-07-29T11:54:01;99358.78;;;28.43;46.90
67341;BME280;54227;45.198;5.732;2022-07-29T11:56:31;99353.75;;;28.31;47.36
67341;BME280;54227;45.198;5.732;2022-07-29T11:59:07;99369.06;;;28.27;47.96
67341;BME280;54227;45.198;5.732;2022-07-29T12:01:34;99381.72;;;28.15;48.39
67341;BME280;54227;45.198;5.732;2022-07-29T12:04:06;99377.84;;;28.05;48.85
67341;BME280;54227;45.198;5.732;2022-07-29T12:06:35;99368.72;;;27.97;49.15
67341;BME280;54227;45.198;5.732;2022-07-29T12:09:07;99359.50;;;27.97;49.32
67341;BME280;54227;45.198;5.732;2022-07-29T12:11:32;99349.78;;;28.02;49.41
67341;BME280;54227;45.198;5.732;2022-07-29T12:13:58;99347.81;;;27.98;49.15
67341;BME280;54227;45.198;5.732;2022-07-29T12:16:36;99343.78;;;28.00;49.17
67341;BME280;54227;45.198;5.732;2022-07-29T12:19:03;99346.19;;;28.01;48.91
67341;BME280;54227;45.198;5.732;2022-07-29T12:21:42;99341.84;;;27.96;49.34
67341;BME280;54227;45.198;5.732;2022-07-29T12:24:08;99338.66;;;27.94;49.40
67341;BME280;54227;45.198;5.732;2022-07-29T12:26:33;99349.91;;;27.94;49.11
67341;BME280;54227;45.198;5.732;2022-07-29T12:28:59;99345.88;;;27.95;49.12
67341;BME280;54227;45.198;5.732;2022-07-29T12:31:24;99343.50;;;27.94;49.61
67341;BME280;54227;45.198;5.732;2022-07-29T12:33:53;99345.97;;;27.88;49.50
67341;BME280;54227;45.198;5.732;2022-07-29T12:36:19;99346.41;;;27.87;49.23
67341;BME280;54227;45.198;5.732;2022-07-29T12:38:44;99338.09;;;27.80;49.15
67341;BME280;54227;45.198;5.732;2022-07-29T12:41:10;99347.69;;;27.82;48.96
67341;BME280;54227;45.198;5.732;2022-07-29T12:43:36;99337.66;;;27.81;49.03
67341;BME280;54227;45.198;5.732;2022-07-29T12:46:14;99338.88;;;27.80;48.97
67341;BME280;54227;45.198;5.732;2022-07-29T12:48:42;99336.88;;;27.81;49.07
67341;BME280;54227;45.198;5.732;2022-07-29T12:51:08;99333.63;;;27.82;49.19
67341;BME280;54227;45.198;5.732;2022-07-29T12:53:35;99335.63;;;27.82;49.21
67341;BME280;54227;45.198;5.732;2022-07-29T12:56:02;99342.09;;;27.79;49.48
67341;BME280;54227;45.198;5.732;2022-07-29T13:01:15;99334.88;;;27.78;50.14
67341;BME280;54227;45.198;5.732;2022-07-29T13:04:00;99324.94;;;27.73;49.67
67341;BME280;54227;45.198;5.732;2022-07-29T13:11:33;99311.59;;;28.04;49.58
67341;BME280;54227;45.198;5.732;2022-07-29T13:13:59;99293.00;;;28.10;49.13
67341;BME280;54227;45.198;5.732;2022-07-29T13:16:24;99298.44;;;28.21;48.83
67341;BME280;54227;45.198;5.732;2022-07-29T13:19:11;99300.75;;;28.26;48.75
67341;BME280;54227;45.198;5.732;2022-07-29T13:21:38;99295.91;;;28.30;48.48
67341;BME280;54227;45.198;5.732;2022-07-29T13:24:07;99295.84;;;28.34;48.22
67341;BME280;54227;45.198;5.732;2022-07-29T13:26:33;99291.75;;;28.38;48.12
67341;BME280;54227;45.198;5.732;2022-07-29T13:28:59;99289.63;;;28.42;47.95
67341;BME280;54227;45.198;5.732;2022-07-29T13:31:24;99286.41;;;28.44;47.59
67341;BME280;54227;45.198;5.732;2022-07-29T13:33:50;99295.56;;;28.48;47.57
67341;BME280;54227;45.198;5.732;2022-07-29T13:36:15;99285.50;;;28.50;47.35
67341;BME280;54227;45.198;5.732;2022-07-29T13:38:41;99271.41;;;28.50;47.29
67341;BME280;54227;45.198;5.732;2022-07-29T13:41:07;99265.72;;;28.54;46.97
67341;BME280;54227;45.198;5.732;2022-07-29T13:43:32;99262.84;;;28.58;46.91
67341;BME280;54227;45.198;5.732;2022-07-29T13:45:57;99259.16;;;28.61;46.74